Time;durP1;ratioP1;P1;durP2;ratioP2;P2;SDS_P1;SDS_P2;PMS_P1;PMS_P2;Temp;Humidity;BMP_temperature;BMP_pressure;BME280_temperature;BME280_humidity;BME280_pressure;Samples;Min_cycle;Max_cycle;Signal;HPM_P1;HPM_P2
2022/03/04 00:01:37;;;;;;;11.23;8.95;;;1.60;99.90;;;1.44;76.13;101757.97;5015437;28;20182;-67
2022/03/04 00:04:06;;;;;;;16.65;10.75;;;1.60;99.90;;;1.03;77.52;101755.88;5015091;28;20182;-67
2022/03/04 00:06:36;;;;;;;14.88;9.35;;;1.30;99.90;;;2.14;75.55;101763.75;5015215;28;20202;-67
2022/03/04 00:09:05;;;;;;;10.68;9.55;;;1.90;99.90;;;1.36;75.98;101763.03;5015979;28;20198;-66
2022/03/04 00:11:34;;;;;;;12.75;9.45;;;1.60;99.90;;;1.30;77.37;101767.94;5014590;28;20185;-67
2022/03/04 00:14:03;;;;;;;13.05;8.75;;;1.40;99.90;;;1.83;78.00;101764.59;5016550;28;20194;-67
2022/03/04 00:16:32;;;;;;;16.45;9.68;;;1.60;99.90;;;2.00;74.97;101767.56;5016107;28;20218;-66
2022/03/04 00:19:09;;;;;;;18.17;10.20;;;1.90;99.90;;;3.65;73.67;101770.31;5016720;28;20257;-66
2022/03/04 00:21:43;;;;;;;11.70;9.60;;;2.70;99.90;;;2.55;72.48;101768.34;5015806;28;20190;-67
2022/03/04 00:24:13;;;;;;;15.65;9.13;;;2.70;99.90;;;2.62;74.48;101761.47;5015042;28;20704;-66
2022/03/04 00:26:42;;;;;;;13.43;11.18;;;2.40;99.90;;;2.93;72.73;101765.06;5014961;28;20264;-67
2022/03/04 00:29:12;;;;;;;10.13;8.90;;;2.80;99.90;;;3.04;70.81;101765.84;5013924;28;20569;-67
2022/03/04 00:31:41;;;;;;;13.02;9.20;;;3.10;99.90;;;2.26;72.59;101761.91;5014816;28;20185;-66
2022/03/04 00:34:11;;;;;;;9.20;8.20;;;2.60;99.90;;;2.54;75.09;101778.16;5015085;28;20238;-67
2022/03/04 00:36:42;;;;;;;12.05;8.52;;;2.50;99.90;;;2.33;73.16;101782.63;5015237;28;20698;-67
2022/03/04 00:39:14;;;;;;;11.98;8.55;;;2.50;99.90;;;2.48;74.44;101778.69;5015434;28;20519;-66
2022/03/04 00:41:44;;;;;;;13.85;8.43;;;2.50;99.90;;;1.60;75.07;101787.75;5014997;28;20198;-68
2022/03/04 00:44:13;;;;;;;11.68;9.00;;;2.00;99.90;;;2.99;74.86;101788.63;5013773;28;20190;-66
2022/03/04 00:46:42;;;;;;;16.13;9.63;;;2.40;99.90;;;2.24;73.42;101795.88;5014615;28;20237;-68
2022/03/04 00:49:11;;;;;;;17.45;10.35;;;2.30;99.90;;;2.63;74.79;101793.44;5015118;28;20544;-66
2022/03/04 00:51:41;;;;;;;10.55;8.65;;;2.30;99.90;;;1.73;74.20;101793.84;5014511;28;20237;-67
2022/03/04 00:54:10;;;;;;;12.20;9.35;;;2.10;99.90;;;1.45;75.70;101792.53;5014795;28;20170;-66
2022/03/04 00:56:40;;;;;;;11.77;9.13;;;1.80;99.90;;;1.52;75.59;101800.88;5013189;28;20248;-67
2022/03/04 00:59:09;;;;;;;11.82;10.30;;;1.70;99.90;;;1.31;76.56;101796.25;5014732;28;20182;-67
2022/03/04 01:01:38;;;;;;;11.38;8.75;;;1.50;99.90;;;1.29;77.17;101800.88;5014670;28;20194;-67
2022/03/04 01:04:07;;;;;;;16.98;11.15;;;1.40;99.90;;;1.11;77.81;101801.47;5014363;28;20240;-65
2022/03/04 01:06:36;;;;;;;15.10;10.18;;;1.30;99.90;;;1.72;75.67;101789.47;5014078;28;20210;-66
2022/03/04 01:09:07;;;;;;;16.08;10.18;;;1.60;99.90;;;1.34;76.63;101803.19;5014062;28;20192;-66
2022/03/04 01:11:37;;;;;;;15.43;10.00;;;1.50;99.90;;;1.39;77.12;101797.50;5014262;28;20636;-67
2022/03/04 01:14:06;;;;;;;13.18;10.27;;;1.50;99.90;;;1.07;77.60;101806.19;5013396;28;20197;-66
2022/03/04 01:16:36;;;;;;;15.68;10.07;;;1.30;99.90;;;1.21;77.49;101799.81;5014121;28;20202;-67
2022/03/04 01:19:05;;;;;;;15.55;11.38;;;1.40;99.90;;;1.28;76.88;101807.19;5014162;28;20681;-67
2022/03/04 01:21:34;;;;;;;19.90;11.73;;;1.40;99.90;;;1.38;76.39;101806.47;5014205;28;20175;-66
2022/03/04 01:24:04;;;;;;;18.85;10.80;;;1.50;99.90;;;1.42;77.53;101807.91;5014129;28;20705;-66
2022/03/04 01:26:34;;;;;;;16.20;12.55;;;1.50;99.90;;;1.34;76.45;101802.34;5013909;28;20202;-66
2022/03/04 01:29:04;;;;;;;27.00;12.45;;;1.50;99.90;;;2.94;75.43;101799.72;5014152;28;20658;-66
2022/03/04 01:31:33;;;;;;;16.67;10.15;;;2.30;99.90;;;4.11;73.21;101793.84;5014090;28;20190;-65
2022/03/04 01:34:03;;;;;;;22.73;11.05;;;3.00;99.90;;;3.32;69.49;101793.72;5013574;28;20174;-66
2022/03/04 01:36:33;;;;;;;16.20;9.43;;;3.30;99.90;;;2.08;73.18;101797.16;5013403;28;20560;-65
2022/03/04 01:39:04;;;;;;;16.40;9.88;;;2.60;99.90;;;1.37;75.72;101792.28;5013701;28;20562;-67
2022/03/04 01:41:34;;;;;;;14.38;10.30;;;1.90;99.90;;;1.21;76.33;101800.63;5013789;28;20198;-66
2022/03/04 01:44:03;;;;;;;22.15;12.27;;;1.60;99.90;;;1.18;76.90;101790.22;5013825;28;20662;-67
2022/03/04 01:46:33;;;;;;;20.85;11.18;;;1.40;99.90;;;2.16;76.09;101784.03;5013789;28;20221;-66
2022/03/04 01:49:02;;;;;;;16.75;9.10;;;1.80;99.90;;;1.58;75.33;101787.06;5013727;28;20240;-66
2022/03/04 01:51:31;;;;;;;17.38;11.40;;;1.70;99.90;;;1.38;76.25;101790.47;5013437;28;20190;-67
2022/03/04 01:54:00;;;;;;;13.02;9.70;;;1.60;99.90;;;1.42;76.51;101787.44;5013284;28;20224;-67
2022/03/04 01:56:29;;;;;;;26.13;10.70;;;1.50;99.90;;;1.53;76.62;101789.25;5013177;28;20256;-65
2022/03/04 01:58:59;;;;;;;17.73;10.07;;;1.60;99.90;;;2.21;75.37;101786.31;5013527;28;20182;-66
2022/03/04 02:01:30;;;;;;;18.90;10.10;;;1.90;99.90;;;2.45;76.13;101781.63;5013530;28;20194;-68
2022/03/04 02:03:59;;;;;;;16.63;8.80;;;2.10;99.90;;;2.07;74.29;101786.63;5013588;28;20170;-65
2022/03/04 02:06:28;;;;;;;15.57;9.65;;;2.20;99.90;;;2.03;74.91;101777.16;5013217;28;20260;-67
2022/03/04 02:08:57;;;;;;;20.83;9.57;;;2.10;99.90;;;2.76;74.51;101771.84;5014190;28;20187;-67
2022/03/04 02:11:26;;;;;;;19.33;9.10;;;2.50;99.90;;;1.89;73.40;101774.78;5014926;28;20244;-66
2022/03/04 02:13:55;;;;;;;13.43;10.07;;;2.20;99.90;;;2.21;74.56;101780.13;5015431;28;20178;-66
2022/03/04 02:16:32;;;;;;;20.58;10.52;;;2.10;99.90;;;2.22;73.21;101776.50;5019421;28;20206;-67
2022/03/04 02:19:01;;;;;;;21.35;9.55;;;2.40;99.90;;;1.71;74.59;101779.75;5019524;28;20173;-67
2022/03/04 02:21:33;;;;;;;16.40;9.88;;;2.00;99.90;;;1.84;74.33;101777.78;5020188;28;20178;-66
2022/03/04 02:24:05;;;;;;;22.33;9.32;;;2.10;99.90;;;1.61;74.69;101776.97;5020359;28;20213;-67
2022/03/04 02:26:34;;;;;;;24.52;11.30;;;1.90;99.90;;;1.55;75.59;101777.47;5019394;28;20258;-67
2022/03/04 02:29:03;;;;;;;19.73;9.23;;;1.80;99.90;;;1.44;75.34;101782.81;5020753;28;20197;-67
2022/03/04 02:31:32;;;;;;;17.65;8.55;;;1.60;99.90;;;1.88;74.92;101776.59;5022290;28;20182;-66
2022/03/04 02:34:00;;;;;;;14.60;8.90;;;1.90;99.90;;;1.40;75.35;101788.53;5022573;28;20236;-66
2022/03/04 02:36:30;;;;;;;17.83;10.88;;;1.70;99.90;;;1.21;76.71;101789.13;5022115;28;20682;-65
2022/03/04 02:38:59;;;;;;;15.23;9.50;;;1.50;99.90;;;1.68;76.68;101777.34;5023115;28;20178;-66
2022/03/04 02:41:29;;;;;;;19.60;10.43;;;1.60;99.90;;;1.82;76.11;101790.44;5013242;28;20186;-65
2022/03/04 02:43:58;;;;;;;15.77;9.80;;;1.80;99.90;;;2.10;73.89;101781.84;5013476;28;20178;-67
2022/03/04 02:46:28;;;;;;;17.80;8.80;;;2.00;99.90;;;5.23;69.67;101780.63;5093260;22;20254;-71
2022/03/04 02:48:57;;;;;;;15.43;7.45;;;3.50;99.90;;;4.97;65.44;101783.09;5058718;28;20663;-71
2022/03/04 02:51:26;;;;;;;10.88;6.45;;;4.30;99.90;;;5.79;67.02;101779.69;5072597;28;20193;-71
2022/03/04 02:53:55;;;;;;;10.52;6.13;;;4.80;99.90;;;5.48;62.93;101784.47;5073293;28;20207;-71
2022/03/04 02:56:25;;;;;;;10.55;6.28;;;5.30;90.90;;;5.77;64.93;101787.03;5072329;28;20226;-71
2022/03/04 02:58:55;;;;;;;10.23;6.40;;;5.60;96.60;;;5.49;63.83;101783.50;5074819;28;20208;-71
2022/03/04 03:01:25;;;;;;;14.80;6.82;;;5.60;99.90;;;6.31;62.93;101770.03;5075124;28;20180;-72
2022/03/04 03:03:55;;;;;;;13.40;6.68;;;5.80;99.90;;;5.35;64.89;101781.28;5074292;28;20191;-72
2022/03/04 03:06:24;;;;;;;9.38;6.45;;;5.30;99.90;;;5.28;63.38;101783.72;5074478;28;20203;-72
2022/03/04 03:08:53;;;;;;;11.73;5.72;;;5.30;99.90;;;4.37;66.22;101785.13;5074363;28;20204;-71
2022/03/04 03:11:22;;;;;;;7.43;5.88;;;4.70;99.90;;;6.59;63.56;101773.47;5074608;28;20172;-71
2022/03/04 03:13:51;;;;;;;7.43;5.10;;;5.40;99.90;;;5.41;61.70;101783.41;5056490;28;20663;-71
2022/03/04 03:16:22;;;;;;;12.10;6.82;;;5.40;66.00;;;5.81;63.51;101783.09;5075343;28;20686;-71
2022/03/04 03:18:51;;;;;;;12.15;6.80;;;5.60;99.90;;;3.69;66.98;101785.13;5075410;28;20559;-72
2022/03/04 03:21:20;;;;;;;10.35;5.82;;;4.70;99.90;;;5.65;64.76;101789.94;5075523;28;20187;-71
2022/03/04 03:23:50;;;;;;;9.20;5.15;;;5.30;99.80;;;5.57;65.37;101784.44;5074917;28;20594;-71
2022/03/04 03:26:19;;;;;;;8.40;6.13;;;5.20;29.00;;;6.71;61.27;101789.25;5077893;28;20194;-72
2022/03/04 03:28:48;;;;;;;7.72;5.38;;;6.00;91.20;;;5.31;62.69;101786.13;5079312;28;20224;-71
2022/03/04 03:31:17;;;;;;;10.57;6.05;;;5.60;99.90;;;3.99;65.56;101779.72;5079962;28;20249;-73
2022/03/04 03:33:48;;;;;;;35.38;31.58;;;4.80;99.90;;;3.48;67.90;101779.84;5080312;28;20183;-71
2022/03/04 03:36:17;;;;;;;17.63;7.60;;;4.10;98.50;;;4.51;70.21;101775.81;5079009;28;20195;-71
2022/03/04 03:38:46;;;;;;;22.40;14.60;;;4.00;99.90;;;3.98;67.41;101779.84;5085224;28;20204;-72
2022/03/04 03:41:15;;;;;;;11.50;8.52;;;4.10;99.90;;;3.75;68.84;101787.25;5088637;28;20180;-72
2022/03/04 03:43:45;;;;;;;14.10;11.45;;;3.80;99.90;;;3.37;68.74;101777.28;5084351;28;20187;-72
2022/03/04 03:46:14;;;;;;;26.77;15.52;;;3.60;99.90;;;3.64;68.29;101787.34;5094892;28;20273;-72
2022/03/04 03:48:43;;;;;;;10.77;8.57;;;3.70;99.90;;;3.82;68.92;101778.56;5095542;28;20176;-73
2022/03/04 03:51:14;;;;;;;10.80;9.68;;;3.70;99.90;;;3.57;69.49;101775.53;5094978;28;20185;-71
2022/03/04 03:53:43;;;;;;;10.95;9.02;;;3.70;99.90;;;5.49;64.81;101773.59;5098336;28;20195;-72
2022/03/04 03:56:12;;;;;;;14.57;8.70;;;4.50;99.90;;;6.32;63.15;101771.72;5099166;28;20153;-72
2022/03/04 03:58:40;;;;;;;10.00;6.93;;;5.30;99.90;;;8.72;57.64;101769.56;5096794;28;20184;-68
2022/03/04 04:01:10;;;;;;;11.25;7.00;;;7.30;70.90;;;9.60;54.54;101772.25;5098606;28;20155;-69
2022/03/04 04:03:38;;;;;;;13.07;8.23;;;8.50;99.90;;;7.96;55.48;101771.59;5097793;28;20174;-70
2022/03/04 04:06:08;;;;;;;8.90;6.45;;;8.30;99.90;;;8.12;57.52;101768.97;5098120;28;20179;-69
2022/03/04 04:08:39;;;;;;;9.68;8.45;;;7.90;1.00;;;6.28;58.80;101770.34;5096941;28;20161;-69
2022/03/04 04:11:08;;;;;;;10.82;9.27;;;6.90;1.00;;;5.69;62.46;101775.22;5091998;28;20607;-70
2022/03/04 04:13:37;;;;;;;13.75;8.32;;;6.20;99.90;;;5.38;63.33;101776.47;5072677;28;20192;-70
2022/03/04 04:16:06;;;;;;;14.10;8.50;;;5.60;99.90;;;4.65;64.10;101779.88;5063614;28;20213;-72
2022/03/04 04:18:36;;;;;;;12.75;9.25;;;5.20;99.90;;;4.79;66.30;101785.66;5077901;28;20203;-70
2022/03/04 04:21:06;;;;;;;16.38;9.77;;;4.80;99.90;;;5.37;64.09;101785.53;5059842;28;20196;-70
2022/03/04 04:23:35;;;;;;;11.95;7.60;;;5.10;91.00;;;6.09;63.03;101787.47;5076435;28;20267;-70
2022/03/04 04:26:08;;;;;;;16.85;9.20;;;5.60;91.70;;;6.49;59.72;101790.53;5076125;28;20399;-70
2022/03/04 04:28:37;;;;;;;13.70;7.55;;;6.20;59.00;;;7.81;58.87;101784.88;5057470;28;20180;-71
2022/03/04 04:31:06;;;;;;;11.40;6.53;;;7.00;64.00;;;7.36;57.44;101785.16;5075382;28;20201;-70
2022/03/04 04:33:35;;;;;;;15.80;8.77;;;7.30;38.50;;;4.81;62.69;101781.00;5073777;28;20584;-71
2022/03/04 04:36:05;;;;;;;18.92;7.70;;;6.10;36.60;;;5.74;61.33;101785.50;5073093;28;20242;-71
2022/03/04 04:38:34;;;;;;;9.82;6.28;;;6.10;49.30;;;5.35;64.29;101792.88;5072558;28;20411;-71
2022/03/04 04:41:06;;;;;;;11.23;7.60;;;5.40;77.50;;;5.83;62.09;101797.19;5072774;28;20262;-70
2022/03/04 04:43:35;;;;;;;10.65;9.35;;;5.70;75.00;;;5.84;63.15;101794.38;5072815;28;20171;-70
2022/03/04 04:46:05;;;;;;;10.70;6.90;;;5.60;80.50;;;5.96;63.24;101792.34;5072099;28;20207;-70
2022/03/04 04:48:34;;;;;;;12.88;7.68;;;5.60;86.00;;;5.33;63.82;101800.22;5072360;28;20708;-71
2022/03/04 04:51:04;;;;;;;9.30;6.47;;;5.50;74.30;;;5.03;64.38;101792.41;5054607;28;20195;-71
2022/03/04 04:53:39;;;;;;;8.32;6.20;;;5.30;76.30;;;5.90;63.90;101793.81;5072460;28;20175;-72
2022/03/04 04:56:09;;;;;;;8.18;6.32;;;5.50;88.10;;;6.06;60.31;101793.13;5054521;28;20192;-71
2022/03/04 04:58:38;;;;;;;8.20;5.28;;;6.00;59.50;;;7.34;60.35;101792.56;5072562;28;20298;-71
2022/03/04 05:01:07;;;;;;;7.15;5.00;;;6.50;79.90;;;6.92;59.64;101792.41;5073060;28;20173;-71
2022/03/04 05:03:37;;;;;;;6.38;5.60;;;6.90;48.40;;;5.57;61.13;101797.88;5072518;28;20603;-71
2022/03/04 05:06:06;;;;;;;7.28;5.78;;;6.30;46.90;;;5.71;64.32;101798.41;5072134;28;20538;-71
2022/03/04 05:08:35;;;;;;;8.38;5.72;;;5.90;73.30;;;7.16;59.96;101780.16;5054531;28;20210;-73
2022/03/04 05:11:05;;;;;;;5.35;4.53;;;6.90;53.40;;;7.71;57.97;101784.16;5072350;28;20319;-70
2022/03/04 05:13:36;;;;;;;6.95;5.40;;;7.40;43.80;;;5.40;61.71;101789.75;5071821;28;20184;-71
2022/03/04 05:16:05;;;;;;;9.05;5.47;;;6.30;35.00;;;3.91;66.27;101787.59;5072060;28;20172;-71
2022/03/04 05:18:34;;;;;;;15.75;6.40;;;5.10;54.60;;;2.98;69.08;101785.09;5072418;28;20525;-71
2022/03/04 05:21:03;;;;;;;6.78;4.97;;;4.00;87.20;;;2.55;71.06;101781.69;5072089;28;20178;-69
2022/03/04 05:26:19;;;;;;;9.70;4.78;;;2.80;99.90;;;2.50;72.02;101791.91;5072368;28;20173;-70
2022/03/04 05:28:50;;;;;;;6.50;4.57;;;2.70;99.90;;;2.07;73.09;101800.81;5347977;22;20227;-67
2022/03/04 05:31:21;;;;;;;11.63;5.45;;;2.40;99.90;;;2.40;72.55;101796.31;5076772;28;20548;-67
2022/03/04 05:33:51;;;;;;;8.02;5.15;;;2.50;99.90;;;2.52;73.13;101805.97;5076509;28;20200;-68
2022/03/04 05:36:21;;;;;;;5.32;4.05;;;2.60;99.90;;;3.10;70.91;101803.75;5077114;28;20192;-67
2022/03/04 05:38:51;;;;;;;11.98;5.65;;;3.10;99.90;;;2.76;71.44;101806.59;5075301;28;20257;-69
2022/03/04 05:44:05;;;;;;;10.43;5.00;;;2.80;99.90;;;2.96;73.30;101813.78;5010682;28;20194;-70
2022/03/04 05:46:34;;;;;;;12.57;4.00;;;2.90;99.90;;;3.62;71.56;101808.94;5014517;28;20560;-70
2022/03/04 05:49:04;;;;;;;10.23;5.03;;;3.40;99.90;;;4.08;70.59;101807.50;5014096;28;20246;-69
2022/03/04 05:51:33;;;;;;;5.65;4.10;;;3.70;99.90;;;2.83;70.71;101814.94;5013950;28;20174;-70
2022/03/04 05:54:02;;;;;;;5.85;3.72;;;3.30;99.90;;;2.33;72.72;101821.84;5013918;28;20615;-70
2022/03/04 05:56:31;;;;;;;8.48;5.05;;;2.80;99.90;;;2.25;73.17;101822.47;5013891;28;20198;-68
2022/03/04 05:59:00;;;;;;;5.55;3.88;;;2.60;99.90;;;2.54;74.02;101825.41;5014367;28;20676;-71
2022/03/04 06:01:30;;;;;;;6.80;4.50;;;2.60;99.90;;;2.26;73.60;101831.34;5013591;28;20225;-69
2022/03/04 06:03:59;;;;;;;8.55;4.80;;;2.50;99.90;;;2.70;73.00;101836.53;5014475;28;20579;-70
2022/03/04 06:06:28;;;;;;;5.78;4.28;;;2.70;99.90;;;2.53;73.29;101839.75;5013696;28;20198;-71
2022/03/04 06:08:57;;;;;;;7.90;5.07;;;2.60;99.90;;;3.47;71.86;101840.56;5013783;28;20554;-70
2022/03/04 06:11:26;;;;;;;10.45;4.95;;;3.10;99.90;;;2.54;72.43;101847.66;5013775;28;20209;-70
2022/03/04 06:13:55;;;;;;;9.90;4.80;;;2.90;99.90;;;2.35;73.68;101849.28;5013997;28;20178;-70
2022/03/04 06:16:24;;;;;;;4.78;4.13;;;2.70;99.90;;;2.97;72.26;101844.88;5013499;28;20605;-70
2022/03/04 06:18:55;;;;;;;9.60;4.25;;;3.00;99.90;;;3.65;70.17;101856.84;5013927;28;20285;-69
2022/03/04 06:21:24;;;;;;;5.30;3.75;;;3.50;99.90;;;3.89;68.29;101854.69;5014266;28;20631;-69
2022/03/04 06:23:53;;;;;;;7.55;3.95;;;3.90;99.90;;;3.43;69.50;101857.00;5014125;28;20258;-69
2022/03/04 06:26:22;;;;;;;7.25;4.40;;;3.60;99.90;;;4.88;66.51;101867.13;5014908;28;20213;-70
2022/03/04 06:28:51;;;;;;;8.00;5.03;;;4.40;99.90;;;3.64;68.51;101857.81;5016143;28;20178;-71
2022/03/04 06:31:19;;;;;;;10.63;4.72;;;4.00;99.90;;;3.36;72.47;101859.34;5017560;28;20175;-70
2022/03/04 06:33:48;;;;;;;5.35;3.38;;;3.50;99.90;;;4.26;70.95;101862.94;5017767;28;20252;-71
2022/03/04 06:36:19;;;;;;;10.27;4.05;;;3.80;99.90;;;4.48;68.36;101863.69;5018422;28;20256;-70
2022/03/04 06:38:48;;;;;;;5.20;3.25;;;4.10;99.90;;;6.20;64.11;101862.50;5015097;28;20248;-69
2022/03/04 06:41:17;;;;;;;9.30;4.03;;;5.30;99.90;;;5.00;65.56;101857.06;5013545;28;20182;-69
2022/03/04 06:43:47;;;;;;;7.75;4.10;;;5.00;90.60;;;3.72;68.04;101852.66;5013122;28;20267;-70
2022/03/04 06:46:16;;;;;;;6.82;3.28;;;4.40;90.00;;;3.58;68.96;101850.34;5013448;28;20737;-69
2022/03/04 06:48:45;;;;;;;7.40;3.90;;;4.00;99.90;;;2.74;71.43;101859.34;5013355;28;20171;-69
2022/03/04 06:51:14;;;;;;;5.68;3.83;;;3.40;99.90;;;2.39;72.81;101869.44;5013321;28;20262;-69
2022/03/04 06:53:45;;;;;;;5.45;3.15;;;2.90;99.90;;;4.20;71.07;101873.38;5013274;28;20709;-69
2022/03/04 06:56:17;;;;;;;5.97;3.65;;;3.50;99.90;;;4.96;67.90;101872.59;5012759;28;20703;-69
2022/03/04 06:58:52;;;;;;;10.45;3.83;;;4.30;99.90;;;3.00;70.55;101870.53;5015690;28;20209;-69
2022/03/04 07:01:21;;;;;;;6.22;3.45;;;3.60;99.90;;;3.05;70.99;101873.63;5014661;28;20194;-69
2022/03/04 07:03:50;;;;;;;7.90;4.72;;;3.40;99.90;;;3.53;71.54;101876.66;5016827;28;20206;-69
2022/03/04 07:06:19;;;;;;;6.90;4.13;;;3.40;99.90;;;4.68;66.14;101877.00;5015462;28;20663;-70
2022/03/04 07:08:50;;;;;;;10.60;4.32;;;4.30;99.90;;;4.37;67.32;101867.34;5024414;28;20178;-69
2022/03/04 07:11:19;;;;;;;8.68;4.50;;;4.40;99.90;;;3.64;69.43;101873.00;5026328;28;20198;-70
2022/03/04 07:13:48;;;;;;;6.63;4.68;;;4.10;99.90;;;3.85;69.65;101872.00;5029968;28;20214;-69
2022/03/04 07:16:16;;;;;;;8.82;7.65;;;3.90;99.90;;;3.65;70.31;101870.22;5029785;28;20277;-72
2022/03/04 07:18:45;;;;;;;6.93;4.78;;;3.70;99.90;;;3.46;70.43;101879.00;5031266;28;20265;-70
2022/03/04 07:21:14;;;;;;;8.70;7.50;;;3.60;99.90;;;3.38;70.46;101872.63;5030650;28;20190;-70
2022/03/04 07:23:43;;;;;;;17.20;8.73;;;3.60;99.90;;;4.45;69.63;101874.72;5031633;28;20209;-70
2022/03/04 07:26:14;;;;;;;11.55;10.65;;;3.90;99.90;;;4.29;66.98;101875.22;5025041;28;20228;-71
2022/03/04 07:28:43;;;;;;;21.35;19.30;;;4.30;98.90;;;4.00;68.08;101885.03;5017492;28;20223;-72
2022/03/04 07:31:12;;;;;;;21.42;17.67;;;4.10;99.90;;;4.08;69.19;101891.38;5000264;28;20190;-70
2022/03/04 07:33:41;;;;;;;10.95;9.02;;;4.00;99.90;;;4.26;68.69;101883.56;5016589;28;20268;-68
2022/03/04 07:36:10;;;;;;;48.03;30.40;;;4.00;99.90;;;4.54;67.94;101885.44;5021966;28;20190;-70
2022/03/04 07:38:39;;;;;;;35.75;27.50;;;4.30;99.90;;;3.82;68.47;101884.81;5023482;28;20234;-70
2022/03/04 07:41:08;;;;;;;55.47;29.25;;;4.00;99.90;;;2.84;71.25;101895.03;5005460;28;20658;-70
2022/03/04 07:43:38;;;;;;;7.63;6.35;;;3.30;99.90;;;2.86;72.08;101890.38;5022941;28;20247;-70
2022/03/04 07:46:08;;;;;;;141.73;83.30;;;3.00;99.90;;;4.70;67.46;101898.28;5017681;28;20182;-69
2022/03/04 07:48:37;;;;;;;11.93;6.90;;;3.90;99.90;;;5.45;65.18;101898.41;5017480;28;20182;-69
2022/03/04 07:51:06;;;;;;;15.43;8.98;;;4.80;99.90;;;5.58;63.97;101900.75;5017143;28;20241;-69
2022/03/04 07:53:35;;;;;;;29.88;22.10;;;5.30;94.70;;;5.08;64.00;101900.16;5016826;28;20226;-68
2022/03/04 07:56:04;;;;;;;7.80;4.20;;;5.10;79.70;;;4.31;66.64;101900.03;5019920;28;20186;-70
2022/03/04 07:58:33;;;;;;;5.93;4.97;;;4.50;92.00;;;4.57;65.84;101903.91;5018455;28;20728;-68
2022/03/04 08:01:05;;;;;;;7.60;4.10;;;4.60;93.90;;;4.78;64.54;101906.50;5017647;28;20210;-71
2022/03/04 08:03:52;;;;;;;5.75;4.28;;;4.70;89.60;;;5.43;63.03;101912.94;5017110;28;20189;-72
2022/03/04 08:06:21;;;;;;;8.88;5.93;;;5.10;86.20;;;4.40;66.04;101919.84;5017142;28;20196;-70
2022/03/04 08:08:50;;;;;;;5.30;4.32;;;4.70;91.00;;;3.98;67.06;101913.75;5022981;28;20178;-70
2022/03/04 08:11:19;;;;;;;6.85;4.60;;;4.30;90.20;;;3.84;68.01;101923.00;5025441;28;20170;-70
2022/03/04 08:13:48;;;;;;;6.18;4.30;;;4.10;96.90;;;3.38;68.97;101921.63;5024293;28;20214;-69
2022/03/04 08:16:18;;;;;;;6.63;4.78;;;3.80;98.80;;;3.10;69.80;101924.91;5022461;28;20197;-69
2022/03/04 08:18:48;;;;;;;8.02;6.38;;;3.50;99.90;;;3.82;69.23;101928.50;5017175;28;20194;-69
2022/03/04 08:21:16;;;;;;;16.45;10.98;;;3.60;99.90;;;3.67;68.44;101929.84;5016948;28;20167;-70
2022/03/04 08:23:46;;;;;;;12.00;8.95;;;3.70;99.90;;;3.66;67.93;101927.28;5016794;28;20312;-69
2022/03/04 08:26:15;;;;;;;9.18;6.78;;;3.70;99.90;;;2.98;69.59;101931.31;5015736;28;20217;-70
2022/03/04 08:28:44;;;;;;;12.82;8.35;;;3.30;99.90;;;3.43;70.49;101924.75;5017289;28;20196;-70
2022/03/04 08:31:13;;;;;;;5.20;3.92;;;3.40;99.90;;;3.03;69.81;101929.09;5017369;28;20198;-68
2022/03/04 08:33:47;;;;;;;4.00;3.60;;;3.20;99.90;;;3.06;70.42;101934.19;5021110;28;20233;-70
2022/03/04 08:36:16;;;;;;;7.72;4.50;;;3.10;99.90;;;3.48;69.91;101935.06;5025400;28;20186;-69
2022/03/04 08:38:46;;;;;;;6.50;4.38;;;3.30;99.90;;;3.65;67.61;101939.81;5028825;28;20174;-68
2022/03/04 08:41:15;;;;;;;15.27;6.15;;;3.60;99.90;;;3.42;68.24;101941.78;5024763;28;20243;-70
2022/03/04 08:43:46;;;;;;;5.95;4.63;;;3.50;99.90;;;3.37;69.44;101941.34;5026542;28;20217;-70
2022/03/04 08:46:15;;;;;;;7.00;4.15;;;3.40;99.90;;;3.49;68.14;101952.81;5019082;28;20209;-69
2022/03/04 08:48:46;;;;;;;7.40;4.18;;;3.40;99.90;;;3.38;68.16;101944.88;5015856;28;20205;-70
2022/03/04 08:51:15;;;;;;;11.05;5.60;;;3.40;99.90;;;3.81;67.61;101952.72;5014311;28;20619;-70
2022/03/04 08:53:44;;;;;;;8.23;5.40;;;3.60;99.90;;;3.40;67.37;101942.88;5015961;28;20264;-71
2022/03/04 08:56:13;;;;;;;6.47;4.65;;;3.40;98.40;;;3.84;67.27;101947.94;5015589;28;20190;-69
2022/03/04 08:58:41;;;;;;;7.22;5.80;;;3.60;99.90;;;4.73;66.24;101941.78;5014402;28;20190;-69
2022/03/04 09:01:10;;;;;;;7.75;4.30;;;4.20;97.20;;;5.50;62.16;101944.44;5015443;28;20212;-71
2022/03/04 09:03:40;;;;;;;4.93;4.15;;;5.00;78.20;;;6.08;60.38;101950.53;5014979;28;20300;-70
2022/03/04 09:06:10;;;;;;;9.65;5.65;;;5.60;54.10;;;5.03;62.04;101942.66;5013597;28;20340;-70
2022/03/04 09:08:39;;;;;;;4.35;3.20;;;5.40;48.70;;;7.11;58.71;101942.16;5014633;28;20604;-71
2022/03/04 09:11:08;;;;;;;8.63;7.20;;;6.20;53.50;;;5.51;59.40;101948.84;5014474;28;20178;-71
2022/03/04 09:13:37;;;;;;;13.30;8.77;;;5.80;32.70;;;4.77;61.80;101955.75;5014244;28;20306;-69
2022/03/04 09:16:07;;;;;;;9.88;4.63;;;5.20;39.40;;;4.48;62.74;101949.47;5015052;28;20178;-70
2022/03/04 09:18:36;;;;;;;5.47;4.50;;;4.80;46.30;;;4.41;64.78;101948.31;5014634;28;20222;-70
2022/03/04 09:21:05;;;;;;;4.57;3.83;;;4.40;56.40;;;5.64;60.22;101948.53;5014869;28;20619;-71
2022/03/04 09:23:36;;;;;;;7.47;5.53;;;5.10;54.10;;;6.16;60.81;101952.47;5014751;28;20218;-70
2022/03/04 09:26:05;;;;;;;9.13;7.50;;;5.30;63.60;;;5.80;59.58;101947.94;5014125;28;20190;-69
2022/03/04 09:28:34;;;;;;;14.73;10.45;;;5.50;43.90;;;7.10;57.29;101951.22;5014645;28;20708;-70
2022/03/04 09:31:09;;;;;;;8.38;5.53;;;6.30;38.60;;;5.90;58.46;101949.63;5014262;28;20178;-70
2022/03/04 09:33:39;;;;;;;6.80;4.80;;;6.00;29.90;;;5.14;60.46;101948.72;5013897;28;20225;-70
2022/03/04 09:36:11;;;;;;;8.00;4.70;;;5.50;31.70;;;5.14;60.80;101950.53;5013278;28;20178;-70
2022/03/04 09:38:43;;;;;;;6.07;4.20;;;5.30;36.30;;;5.12;61.17;101949.84;5014358;28;20196;-71
2022/03/04 09:41:13;;;;;;;7.38;4.53;;;5.10;40.60;;;6.59;59.93;101951.00;5013675;28;20217;-71
2022/03/04 09:43:43;;;;;;;7.32;4.55;;;5.60;51.60;;;6.30;57.23;101952.00;5014067;28;20255;-70
2022/03/04 09:46:14;;;;;;;8.27;4.60;;;6.00;32.30;;;6.04;57.04;101941.09;5014277;28;20178;-71
2022/03/04 09:48:45;;;;;;;8.00;4.50;;;6.10;26.50;;;5.77;58.01;101940.13;5014731;28;20181;-70
2022/03/04 09:51:14;;;;;;;5.85;4.28;;;5.90;27.20;;;5.48;58.66;101938.38;5010023;28;20178;-68
2022/03/04 09:53:46;;;;;;;14.07;3.75;;;5.60;28.30;;;5.43;58.63;101940.63;4996668;28;20262;-68
2022/03/04 09:56:15;;;;;;;8.65;5.50;;;5.50;29.30;;;4.85;59.13;101949.69;5004743;28;20210;-69
2022/03/04 09:59:10;;;;;;;5.70;3.97;;;5.10;26.70;;;4.45;58.23;101941.72;5011359;28;20245;-69
2022/03/04 10:01:39;;;;;;;9.38;4.43;;;4.70;24.00;;;4.59;58.16;101935.97;4997728;28;20191;-70
2022/03/04 10:04:08;;;;;;;8.68;3.60;;;4.60;25.80;;;4.56;57.88;101945.13;4998666;28;20264;-69
2022/03/04 10:06:39;;;;;;;9.30;4.45;;;4.60;24.50;;;4.26;57.20;101940.66;5004270;28;20190;-71
2022/03/04 10:09:10;;;;;;;7.90;5.32;;;4.40;22.20;;;4.26;57.89;101947.88;5011457;28;20213;-68
2022/03/04 10:11:40;;;;;;;7.07;4.72;;;4.30;23.90;;;4.89;57.29;101943.06;5002421;28;20200;-70
2022/03/04 10:14:13;;;;;;;6.43;3.63;;;4.60;25.40;;;4.45;57.60;101947.06;4999658;28;20720;-71
2022/03/04 10:16:43;;;;;;;5.03;3.67;;;4.50;23.20;;;4.24;58.42;101941.78;4994923;28;20203;-69
2022/03/04 10:19:15;;;;;;;6.43;3.35;;;4.40;24.20;;;3.98;59.15;101940.53;4994565;28;20201;-69
2022/03/04 10:21:53;;;;;;;4.00;3.60;;;4.20;24.90;;;4.15;58.75;101942.59;4994979;28;20277;-70
2022/03/04 10:24:29;;;;;;;4.40;3.47;;;4.10;25.70;;;4.18;58.44;101947.69;4998262;28;20178;-71
2022/03/04 10:27:04;;;;;;;4.53;3.42;;;4.20;25.60;;;3.93;59.89;101947.16;5014899;28;20181;-70
2022/03/04 10:29:39;;;;;;;8.50;4.32;;;4.10;27.50;;;3.93;59.76;101947.16;5014469;28;20570;-70
2022/03/04 10:32:19;;;;;;;5.90;3.92;;;4.00;28.00;;;3.83;59.84;101958.78;5015759;28;20840;-71
2022/03/04 10:34:55;;;;;;;6.97;4.07;;;3.90;28.00;;;4.03;59.23;101946.34;5015071;28;20647;-69
2022/03/04 10:37:40;;;;;;;7.13;5.47;;;4.00;28.30;;;3.85;59.72;101952.34;5026357;28;20190;-70